sensor_id;sensor_type;location;lat;lon;timestamp;P1;durP1;ratioP1;P2;durP2;ratioP2
67751;SDS011;54551;51.068;5.826;2023-04-07T00:01:13;33.57;;;24.17;;
67751;SDS011;54551;51.068;5.826;2023-04-07T00:03:39;39.50;;;26.27;;
67751;SDS011;54551;51.068;5.826;2023-04-07T00:06:05;36.63;;;25.43;;
67751;SDS011;54551;51.068;5.826;2023-04-07T00:08:31;35.67;;;25.50;;
67751;SDS011;54551;51.068;5.826;2023-04-07T00:10:57;38.73;;;24.60;;
67751;SDS011;54551;51.068;5.826;2023-04-07T00:13:23;37.27;;;25.50;;
67751;SDS011;54551;51.068;5.826;2023-04-07T00:15:50;38.63;;;26.60;;
67751;SDS011;54551;51.068;5.826;2023-04-07T00:18:16;41.10;;;26.00;;
67751;SDS011;54551;51.068;5.826;2023-04-07T00:20:42;38.33;;;26.13;;
67751;SDS011;54551;51.068;5.826;2023-04-07T00:23:08;43.63;;;28.70;;
67751;SDS011;54551;51.068;5.826;2023-04-07T00:25:34;44.03;;;28.77;;
67751;SDS011;54551;51.068;5.826;2023-04-07T00:28:00;45.50;;;29.17;;
67751;SDS011;54551;51.068;5.826;2023-04-07T00:30:26;47.83;;;30.07;;
67751;SDS011;54551;51.068;5.826;2023-04-07T00:32:52;45.00;;;29.83;;
67751;SDS011;54551;51.068;5.826;2023-04-07T00:35:18;45.40;;;30.43;;
67751;SDS011;54551;51.068;5.826;2023-04-07T00:37:44;46.07;;;31.13;;
67751;SDS011;54551;51.068;5.826;2023-04-07T00:40:10;45.53;;;30.00;;
67751;SDS011;54551;51.068;5.826;2023-04-07T00:42:36;48.70;;;31.67;;
67751;SDS011;54551;51.068;5.826;2023-04-07T00:45:02;45.00;;;30.37;;
67751;SDS011;54551;51.068;5.826;2023-04-07T00:47:29;50.83;;;32.57;;
67751;SDS011;54551;51.068;5.826;2023-04-07T00:49:55;51.30;;;34.07;;
67751;SDS011;54551;51.068;5.826;2023-04-07T00:52:21;54.50;;;33.63;;
67751;SDS011;54551;51.068;5.826;2023-04-07T00:54:53;52.40;;;33.83;;
67751;SDS011;54551;51.068;5.826;2023-04-07T00:57:20;54.80;;;34.63;;
67751;SDS011;54551;51.068;5.826;2023-04-07T00:59:50;51.37;;;34.00;;
67751;SDS011;54551;51.068;5.826;2023-04-07T01:02:22;57.50;;;35.93;;
67751;SDS011;54551;51.068;5.826;2023-04-07T01:10:38;51.87;;;33.17;;
67751;SDS011;54551;51.068;5.826;2023-04-07T01:13:22;51.70;;;31.50;;
67751;SDS011;54551;51.068;5.826;2023-04-07T01:16:04;53.93;;;32.03;;
67751;SDS011;54551;51.068;5.826;2023-04-07T01:18:42;52.57;;;32.87;;
67751;SDS011;54551;51.068;5.826;2023-04-07T01:21:16;50.03;;;31.50;;
67751;SDS011;54551;51.068;5.826;2023-04-07T01:26:17;49.83;;;31.17;;
67751;SDS011;54551;51.068;5.826;2023-04-07T01:31:39;52.57;;;32.80;;
67751;SDS011;54551;51.068;5.826;2023-04-07T01:34:08;48.80;;;31.50;;
67751;SDS011;54551;51.068;5.826;2023-04-07T01:36:35;48.70;;;31.00;;
67751;SDS011;54551;51.068;5.826;2023-04-07T01:39:01;46.67;;;31.37;;
67751;SDS011;54551;51.068;5.826;2023-04-07T01:41:28;52.27;;;31.93;;
67751;SDS011;54551;51.068;5.826;2023-04-07T01:43:55;49.90;;;31.97;;
67751;SDS011;54551;51.068;5.826;2023-04-07T01:46:23;49.53;;;31.57;;
67751;SDS011;54551;51.068;5.826;2023-04-07T01:48:49;50.33;;;32.17;;
67751;SDS011;54551;51.068;5.826;2023-04-07T01:51:17;50.60;;;31.90;;
67751;SDS011;54551;51.068;5.826;2023-04-07T01:53:46;51.50;;;32.03;;
67751;SDS011;54551;51.068;5.826;2023-04-07T01:56:13;54.03;;;31.90;;
67751;SDS011;54551;51.068;5.826;2023-04-07T01:58:40;58.73;;;35.07;;
67751;SDS011;54551;51.068;5.826;2023-04-07T02:01:09;56.43;;;33.50;;
67751;SDS011;54551;51.068;5.826;2023-04-07T02:04:23;55.80;;;34.13;;
67751;SDS011;54551;51.068;5.826;2023-04-07T02:06:33;56.23;;;34.00;;
67751;SDS011;54551;51.068;5.826;2023-04-07T02:09:15;48.67;;;32.23;;
67751;SDS011;54551;51.068;5.826;2023-04-07T02:11:47;52.77;;;33.13;;
67751;SDS011;54551;51.068;5.826;2023-04-07T02:14:16;59.53;;;34.13;;
67751;SDS011;54551;51.068;5.826;2023-04-07T02:16:58;60.20;;;35.83;;
67751;SDS011;54551;51.068;5.826;2023-04-07T02:19:26;59.73;;;36.17;;
67751;SDS011;54551;51.068;5.826;2023-04-07T02:21:54;60.50;;;36.67;;
67751;SDS011;54551;51.068;5.826;2023-04-07T02:24:21;61.43;;;38.30;;
67751;SDS011;54551;51.068;5.826;2023-04-07T02:26:47;64.30;;;37.60;;
67751;SDS011;54551;51.068;5.826;2023-04-07T02:29:13;59.67;;;36.63;;
67751;SDS011;54551;51.068;5.826;2023-04-07T02:31:39;64.83;;;38.53;;
67751;SDS011;54551;51.068;5.826;2023-04-07T02:34:05;70.27;;;38.27;;
67751;SDS011;54551;51.068;5.826;2023-04-07T02:36:31;63.50;;;35.90;;
67751;SDS011;54551;51.068;5.826;2023-04-07T02:38:57;61.00;;;35.23;;
67751;SDS011;54551;51.068;5.826;2023-04-07T02:41:23;69.17;;;38.00;;
67751;SDS011;54551;51.068;5.826;2023-04-07T02:43:51;65.07;;;37.57;;
67751;SDS011;54551;51.068;5.826;2023-04-07T02:46:17;61.80;;;37.20;;
67751;SDS011;54551;51.068;5.826;2023-04-07T02:48:43;58.47;;;35.40;;
67751;SDS011;54551;51.068;5.826;2023-04-07T02:51:09;67.63;;;38.10;;
67751;SDS011;54551;51.068;5.826;2023-04-07T02:53:35;65.40;;;38.17;;
67751;SDS011;54551;51.068;5.826;2023-04-07T02:56:02;67.40;;;37.90;;
67751;SDS011;54551;51.068;5.826;2023-04-07T02:58:28;65.80;;;37.93;;
67751;SDS011;54551;51.068;5.826;2023-04-07T03:00:55;71.20;;;38.97;;
67751;SDS011;54551;51.068;5.826;2023-04-07T03:03:24;72.63;;;41.17;;
67751;SDS011;54551;51.068;5.826;2023-04-07T03:06:04;69.53;;;38.20;;
67751;SDS011;54551;51.068;5.826;2023-04-07T03:08:32;66.90;;;39.67;;
67751;SDS011;54551;51.068;5.826;2023-04-07T03:10:58;79.07;;;42.70;;
67751;SDS011;54551;51.068;5.826;2023-04-07T03:13:27;71.77;;;42.27;;
67751;SDS011;54551;51.068;5.826;2023-04-07T03:15:55;70.33;;;41.23;;
67751;SDS011;54551;51.068;5.826;2023-04-07T03:18:23;70.60;;;40.63;;
67751;SDS011;54551;51.068;5.826;2023-04-07T03:20:52;71.00;;;41.00;;
67751;SDS011;54551;51.068;5.826;2023-04-07T03:23:19;73.20;;;39.97;;
67751;SDS011;54551;51.068;5.826;2023-04-07T03:25:45;66.40;;;41.30;;
67751;SDS011;54551;51.068;5.826;2023-04-07T03:28:11;65.10;;;39.50;;
67751;SDS011;54551;51.068;5.826;2023-04-07T03:30:38;70.30;;;41.50;;
67751;SDS011;54551;51.068;5.826;2023-04-07T03:33:05;72.70;;;42.90;;
67751;SDS011;54551;51.068;5.826;2023-04-07T03:35:32;81.90;;;44.43;;
67751;SDS011;54551;51.068;5.826;2023-04-07T03:37:57;75.07;;;43.03;;
67751;SDS011;54551;51.068;5.826;2023-04-07T03:40:25;74.40;;;42.30;;
67751;SDS011;54551;51.068;5.826;2023-04-07T03:42:51;74.13;;;43.70;;
67751;SDS011;54551;51.068;5.826;2023-04-07T03:45:17;66.97;;;40.37;;
67751;SDS011;54551;51.068;5.826;2023-04-07T03:47:48;68.67;;;40.03;;
67751;SDS011;54551;51.068;5.826;2023-04-07T03:50:15;69.97;;;40.50;;
67751;SDS011;54551;51.068;5.826;2023-04-07T03:52:52;67.33;;;42.27;;
67751;SDS011;54551;51.068;5.826;2023-04-07T03:55:23;69.77;;;40.50;;
67751;SDS011;54551;51.068;5.826;2023-04-07T03:57:54;69.43;;;41.57;;
67751;SDS011;54551;51.068;5.826;2023-04-07T04:00:21;60.33;;;38.73;;
67751;SDS011;54551;51.068;5.826;2023-04-07T04:03:01;54.83;;;35.90;;
67751;SDS011;54551;51.068;5.826;2023-04-07T04:05:28;50.23;;;34.47;;
67751;SDS011;54551;51.068;5.826;2023-04-07T04:07:54;44.83;;;29.83;;
67751;SDS011;54551;51.068;5.826;2023-04-07T04:10:21;38.10;;;27.23;;
67751;SDS011;54551;51.068;5.826;2023-04-07T04:12:50;40.03;;;27.53;;
67751;SDS011;54551;51.068;5.826;2023-04-07T04:15:17;38.17;;;26.70;;
67751;SDS011;54551;51.068;5.826;2023-04-07T04:17:43;32.40;;;23.77;;
67751;SDS011;54551;51.068;5.826;2023-04-07T04:20:11;31.50;;;22.10;;
67751;SDS011;54551;51.068;5.826;2023-04-07T04:22:42;28.37;;;20.77;;
67751;SDS011;54551;51.068;5.826;2023-04-07T04:25:08;30.07;;;22.07;;
67751;SDS011;54551;51.068;5.826;2023-04-07T04:27:34;26.40;;;20.73;;
67751;SDS011;54551;51.068;5.826;2023-04-07T04:30:06;28.53;;;20.47;;
67751;SDS011;54551;51.068;5.826;2023-04-07T04:32:37;22.60;;;19.80;;
67751;SDS011;54551;51.068;5.826;2023-04-07T04:35:04;21.27;;;17.30;;
67751;SDS011;54551;51.068;5.826;2023-04-07T04:37:36;21.63;;;18.10;;
67751;SDS011;54551;51.068;5.826;2023-04-07T04:40:07;22.57;;;17.30;;
67751;SDS011;54551;51.068;5.826;2023-04-07T04:42:34;21.17;;;16.97;;
67751;SDS011;54551;51.068;5.826;2023-04-07T04:45:01;19.63;;;16.37;;
67751;SDS011;54551;51.068;5.826;2023-04-07T04:47:29;20.93;;;16.40;;
67751;SDS011;54551;51.068;5.826;2023-04-07T04:49:56;21.67;;;17.13;;
67751;SDS011;54551;51.068;5.826;2023-04-07T04:52:23;23.43;;;17.57;;
67751;SDS011;54551;51.068;5.826;2023-04-07T04:54:49;25.73;;;20.07;;
67751;SDS011;54551;51.068;5.826;2023-04-07T04:57:16;21.70;;;15.80;;
67751;SDS011;54551;51.068;5.826;2023-04-07T04:59:42;19.30;;;15.80;;
67751;SDS011;54551;51.068;5.826;2023-04-07T05:02:09;20.07;;;15.30;;
67751;SDS011;54551;51.068;5.826;2023-04-07T05:04:35;22.53;;;17.60;;
67751;SDS011;54551;51.068;5.826;2023-04-07T05:07:22;20.70;;;15.77;;
67751;SDS011;54551;51.068;5.826;2023-04-07T05:09:48;17.60;;;13.00;;
67751;SDS011;54551;51.068;5.826;2023-04-07T05:12:16;14.13;;;11.80;;
67751;SDS011;54551;51.068;5.826;2023-04-07T05:14:46;17.40;;;13.07;;
67751;SDS011;54551;51.068;5.826;2023-04-07T05:17:12;16.40;;;12.17;;
67751;SDS011;54551;51.068;5.826;2023-04-07T05:19:39;16.40;;;13.40;;
67751;SDS011;54551;51.068;5.826;2023-04-07T05:22:19;17.43;;;14.50;;
67751;SDS011;54551;51.068;5.826;2023-04-07T05:24:47;18.43;;;14.03;;
67751;SDS011;54551;51.068;5.826;2023-04-07T05:27:13;18.33;;;14.50;;
67751;SDS011;54551;51.068;5.826;2023-04-07T05:29:40;22.40;;;14.17;;
67751;SDS011;54551;51.068;5.826;2023-04-07T05:32:17;21.87;;;15.73;;
67751;SDS011;54551;51.068;5.826;2023-04-07T05:34:43;23.80;;;16.63;;
67751;SDS011;54551;51.068;5.826;2023-04-07T05:37:17;23.73;;;15.50;;
67751;SDS011;54551;51.068;5.826;2023-04-07T05:39:44;24.53;;;17.17;;
67751;SDS011;54551;51.068;5.826;2023-04-07T05:42:12;24.53;;;17.67;;
67751;SDS011;54551;51.068;5.826;2023-04-07T05:44:40;22.03;;;17.47;;
67751;SDS011;54551;51.068;5.826;2023-04-07T05:47:06;21.57;;;17.47;;
67751;SDS011;54551;51.068;5.826;2023-04-07T05:49:34;24.43;;;17.70;;
67751;SDS011;54551;51.068;5.826;2023-04-07T05:52:04;28.00;;;21.47;;
67751;SDS011;54551;51.068;5.826;2023-04-07T05:54:32;28.73;;;19.67;;
67751;SDS011;54551;51.068;5.826;2023-04-07T05:57:00;27.43;;;20.50;;
67751;SDS011;54551;51.068;5.826;2023-04-07T05:59:28;31.00;;;20.53;;
67751;SDS011;54551;51.068;5.826;2023-04-07T06:01:54;28.27;;;21.17;;
67751;SDS011;54551;51.068;5.826;2023-04-07T06:04:21;31.97;;;21.53;;
67751;SDS011;54551;51.068;5.826;2023-04-07T06:06:49;33.47;;;22.13;;
67751;SDS011;54551;51.068;5.826;2023-04-07T06:09:17;30.73;;;20.87;;
67751;SDS011;54551;51.068;5.826;2023-04-07T06:11:43;34.73;;;20.63;;
67751;SDS011;54551;51.068;5.826;2023-04-07T06:14:13;30.03;;;21.23;;
67751;SDS011;54551;51.068;5.826;2023-04-07T06:16:39;29.47;;;20.57;;
67751;SDS011;54551;51.068;5.826;2023-04-07T06:19:05;33.07;;;21.70;;
67751;SDS011;54551;51.068;5.826;2023-04-07T06:21:32;28.70;;;21.17;;
67751;SDS011;54551;51.068;5.826;2023-04-07T06:23:58;30.50;;;19.10;;
67751;SDS011;54551;51.068;5.826;2023-04-07T06:26:26;32.70;;;21.50;;
67751;SDS011;54551;51.068;5.826;2023-04-07T06:28:54;27.93;;;21.37;;
67751;SDS011;54551;51.068;5.826;2023-04-07T06:31:20;27.83;;;20.47;;
67751;SDS011;54551;51.068;5.826;2023-04-07T06:33:46;33.33;;;21.50;;
67751;SDS011;54551;51.068;5.826;2023-04-07T06:36:12;30.90;;;20.70;;
67751;SDS011;54551;51.068;5.826;2023-04-07T06:38:38;28.87;;;20.90;;
67751;SDS011;54551;51.068;5.826;2023-04-07T06:41:04;34.73;;;21.27;;
67751;SDS011;54551;51.068;5.826;2023-04-07T06:43:30;33.90;;;21.13;;
67751;SDS011;54551;51.068;5.826;2023-04-07T06:46:01;35.03;;;22.87;;
67751;SDS011;54551;51.068;5.826;2023-04-07T06:48:27;34.33;;;23.53;;
67751;SDS011;54551;51.068;5.826;2023-04-07T06:50:53;37.30;;;23.27;;
67751;SDS011;54551;51.068;5.826;2023-04-07T06:53:19;40.17;;;24.90;;
67751;SDS011;54551;51.068;5.826;2023-04-07T06:55:45;40.70;;;25.53;;
67751;SDS011;54551;51.068;5.826;2023-04-07T06:58:11;38.47;;;25.63;;
67751;SDS011;54551;51.068;5.826;2023-04-07T07:00:37;39.17;;;25.60;;
67751;SDS011;54551;51.068;5.826;2023-04-07T07:03:03;41.27;;;27.10;;
67751;SDS011;54551;51.068;5.826;2023-04-07T07:05:29;40.20;;;27.33;;
67751;SDS011;54551;51.068;5.826;2023-04-07T07:07:56;44.87;;;28.80;;
67751;SDS011;54551;51.068;5.826;2023-04-07T07:10:21;43.63;;;27.57;;
67751;SDS011;54551;51.068;5.826;2023-04-07T07:12:48;43.17;;;28.37;;
67751;SDS011;54551;51.068;5.826;2023-04-07T07:15:15;41.53;;;27.40;;
67751;SDS011;54551;51.068;5.826;2023-04-07T07:17:41;38.87;;;27.13;;
67751;SDS011;54551;51.068;5.826;2023-04-07T07:20:07;38.97;;;27.10;;
67751;SDS011;54551;51.068;5.826;2023-04-07T07:22:34;45.40;;;28.37;;
67751;SDS011;54551;51.068;5.826;2023-04-07T07:25:00;41.20;;;26.37;;
67751;SDS011;54551;51.068;5.826;2023-04-07T07:27:26;39.40;;;25.47;;
67751;SDS011;54551;51.068;5.826;2023-04-07T07:29:52;40.53;;;26.23;;
67751;SDS011;54551;51.068;5.826;2023-04-07T07:32:18;38.43;;;25.33;;
67751;SDS011;54551;51.068;5.826;2023-04-07T07:34:44;36.33;;;24.83;;
67751;SDS011;54551;51.068;5.826;2023-04-07T07:37:09;34.97;;;23.63;;
67751;SDS011;54551;51.068;5.826;2023-04-07T07:39:36;38.57;;;25.57;;
67751;SDS011;54551;51.068;5.826;2023-04-07T07:42:02;38.17;;;25.17;;
67751;SDS011;54551;51.068;5.826;2023-04-07T07:44:28;33.43;;;24.43;;
67751;SDS011;54551;51.068;5.826;2023-04-07T07:46:55;33.47;;;25.33;;
67751;SDS011;54551;51.068;5.826;2023-04-07T07:49:20;37.57;;;25.73;;
67751;SDS011;54551;51.068;5.826;2023-04-07T07:51:46;35.00;;;24.00;;
67751;SDS011;54551;51.068;5.826;2023-04-07T07:54:12;37.20;;;25.37;;
67751;SDS011;54551;51.068;5.826;2023-04-07T07:56:38;38.80;;;26.07;;
67751;SDS011;54551;51.068;5.826;2023-04-07T07:59:04;32.37;;;24.60;;
67751;SDS011;54551;51.068;5.826;2023-04-07T08:01:30;35.53;;;24.57;;
67751;SDS011;54551;51.068;5.826;2023-04-07T08:03:56;38.40;;;24.90;;
67751;SDS011;54551;51.068;5.826;2023-04-07T08:06:22;38.87;;;24.37;;
67751;SDS011;54551;51.068;5.826;2023-04-07T08:08:49;38.33;;;25.90;;
67751;SDS011;54551;51.068;5.826;2023-04-07T08:11:15;35.23;;;26.73;;
67751;SDS011;54551;51.068;5.826;2023-04-07T08:13:41;40.73;;;25.80;;
67751;SDS011;54551;51.068;5.826;2023-04-07T08:16:09;35.77;;;24.07;;
67751;SDS011;54551;51.068;5.826;2023-04-07T08:18:36;33.63;;;24.70;;
67751;SDS011;54551;51.068;5.826;2023-04-07T08:21:04;38.37;;;25.57;;
67751;SDS011;54551;51.068;5.826;2023-04-07T08:23:31;33.37;;;24.57;;
67751;SDS011;54551;51.068;5.826;2023-04-07T08:25:57;38.13;;;25.27;;
67751;SDS011;54551;51.068;5.826;2023-04-07T08:28:23;34.57;;;25.33;;
67751;SDS011;54551;51.068;5.826;2023-04-07T08:30:50;34.87;;;24.97;;
67751;SDS011;54551;51.068;5.826;2023-04-07T08:33:16;33.20;;;24.37;;
67751;SDS011;54551;51.068;5.826;2023-04-07T08:35:42;32.53;;;24.10;;
67751;SDS011;54551;51.068;5.826;2023-04-07T08:38:07;32.90;;;25.47;;
67751;SDS011;54551;51.068;5.826;2023-04-07T08:40:34;33.07;;;24.57;;
67751;SDS011;54551;51.068;5.826;2023-04-07T08:43:00;30.73;;;22.77;;
67751;SDS011;54551;51.068;5.826;2023-04-07T08:45:34;30.80;;;21.77;;
67751;SDS011;54551;51.068;5.826;2023-04-07T08:48:05;31.37;;;23.30;;
67751;SDS011;54551;51.068;5.826;2023-04-07T08:50:41;34.33;;;24.30;;
67751;SDS011;54551;51.068;5.826;2023-04-07T08:53:13;33.37;;;23.20;;
67751;SDS011;54551;51.068;5.826;2023-04-07T08:55:47;29.60;;;22.33;;
67751;SDS011;54551;51.068;5.826;2023-04-07T08:58:13;33.77;;;24.20;;
67751;SDS011;54551;51.068;5.826;2023-04-07T09:00:41;27.77;;;22.50;;
67751;SDS011;54551;51.068;5.826;2023-04-07T09:03:10;28.23;;;22.27;;
67751;SDS011;54551;51.068;5.826;2023-04-07T09:05:36;28.33;;;21.43;;
67751;SDS011;54551;51.068;5.826;2023-04-07T09:08:03;28.47;;;21.90;;
67751;SDS011;54551;51.068;5.826;2023-04-07T09:10:29;29.83;;;22.40;;
67751;SDS011;54551;51.068;5.826;2023-04-07T09:12:57;29.03;;;23.60;;
67751;SDS011;54551;51.068;5.826;2023-04-07T09:15:24;30.07;;;23.27;;
67751;SDS011;54551;51.068;5.826;2023-04-07T09:17:55;26.73;;;21.93;;
67751;SDS011;54551;51.068;5.826;2023-04-07T09:20:21;25.70;;;20.93;;
67751;SDS011;54551;51.068;5.826;2023-04-07T09:22:47;24.93;;;20.27;;
67751;SDS011;54551;51.068;5.826;2023-04-07T09:25:22;28.87;;;21.60;;
67751;SDS011;54551;51.068;5.826;2023-04-07T09:27:56;25.87;;;20.00;;
67751;SDS011;54551;51.068;5.826;2023-04-07T09:30:23;27.30;;;21.13;;
67751;SDS011;54551;51.068;5.826;2023-04-07T09:32:50;27.33;;;21.30;;
67751;SDS011;54551;51.068;5.826;2023-04-07T09:35:16;23.70;;;18.93;;
67751;SDS011;54551;51.068;5.826;2023-04-07T09:37:43;22.53;;;17.10;;
67751;SDS011;54551;51.068;5.826;2023-04-07T09:40:09;22.13;;;16.00;;
67751;SDS011;54551;51.068;5.826;2023-04-07T09:42:43;17.80;;;13.87;;
67751;SDS011;54551;51.068;5.826;2023-04-07T09:45:10;12.17;;;10.87;;
67751;SDS011;54551;51.068;5.826;2023-04-07T09:47:36;15.80;;;11.77;;
67751;SDS011;54551;51.068;5.826;2023-04-07T09:50:02;12.17;;;10.87;;
67751;SDS011;54551;51.068;5.826;2023-04-07T09:52:50;12.40;;;9.40;;
67751;SDS011;54551;51.068;5.826;2023-04-07T09:55:18;10.70;;;8.77;;
67751;SDS011;54551;51.068;5.826;2023-04-07T09:57:47;8.03;;;7.23;;
67751;SDS011;54551;51.068;5.826;2023-04-07T10:00:17;9.70;;;7.90;;
67751;SDS011;54551;51.068;5.826;2023-04-07T10:02:43;7.97;;;6.97;;
67751;SDS011;54551;51.068;5.826;2023-04-07T10:05:10;9.53;;;7.83;;
67751;SDS011;54551;51.068;5.826;2023-04-07T10:07:36;10.67;;;7.60;;
67751;SDS011;54551;51.068;5.826;2023-04-07T10:10:03;8.03;;;6.40;;
67751;SDS011;54551;51.068;5.826;2023-04-07T10:12:32;9.60;;;6.23;;
67751;SDS011;54551;51.068;5.826;2023-04-07T10:14:59;9.07;;;6.03;;
67751;SDS011;54551;51.068;5.826;2023-04-07T10:17:27;9.27;;;6.30;;
67751;SDS011;54551;51.068;5.826;2023-04-07T10:19:53;9.47;;;6.67;;
67751;SDS011;54551;51.068;5.826;2023-04-07T10:22:26;8.17;;;7.07;;
67751;SDS011;54551;51.068;5.826;2023-04-07T10:27:23;10.27;;;8.90;;
67751;SDS011;54551;51.068;5.826;2023-04-07T10:30:02;17.60;;;11.57;;
67751;SDS011;54551;51.068;5.826;2023-04-07T10:32:31;15.17;;;12.43;;
67751;SDS011;54551;51.068;5.826;2023-04-07T10:34:57;15.30;;;12.60;;
67751;SDS011;54551;51.068;5.826;2023-04-07T10:37:24;15.07;;;13.13;;
67751;SDS011;54551;51.068;5.826;2023-04-07T10:39:51;13.87;;;12.40;;
67751;SDS011;54551;51.068;5.826;2023-04-07T10:42:52;14.93;;;13.13;;
67751;SDS011;54551;51.068;5.826;2023-04-07T10:45:17;13.77;;;12.37;;
67751;SDS011;54551;51.068;5.826;2023-04-07T10:48:13;14.73;;;12.20;;
67751;SDS011;54551;51.068;5.826;2023-04-07T10:50:41;14.53;;;11.90;;
67751;SDS011;54551;51.068;5.826;2023-04-07T10:53:07;15.17;;;11.97;;
67751;SDS011;54551;51.068;5.826;2023-04-07T10:55:42;16.37;;;11.97;;
67751;SDS011;54551;51.068;5.826;2023-04-07T11:03:26;14.10;;;11.63;;
67751;SDS011;54551;51.068;5.826;2023-04-07T11:06:06;14.13;;;11.77;;
67751;SDS011;54551;51.068;5.826;2023-04-07T11:08:34;14.13;;;11.27;;
67751;SDS011;54551;51.068;5.826;2023-04-07T11:11:01;15.80;;;11.47;;
67751;SDS011;54551;51.068;5.826;2023-04-07T11:13:46;11.10;;;9.90;;
67751;SDS011;54551;51.068;5.826;2023-04-07T11:16:14;9.60;;;8.70;;
67751;SDS011;54551;51.068;5.826;2023-04-07T11:18:42;10.20;;;8.90;;
67751;SDS011;54551;51.068;5.826;2023-04-07T11:21:09;11.80;;;9.00;;
67751;SDS011;54551;51.068;5.826;2023-04-07T11:23:39;11.00;;;8.50;;
67751;SDS011;54551;51.068;5.826;2023-04-07T11:26:06;9.77;;;8.40;;
67751;SDS011;54551;51.068;5.826;2023-04-07T11:28:33;9.17;;;8.23;;
67751;SDS011;54551;51.068;5.826;2023-04-07T11:31:02;9.40;;;8.40;;
67751;SDS011;54551;51.068;5.826;2023-04-07T11:33:29;11.40;;;8.37;;
67751;SDS011;54551;51.068;5.826;2023-04-07T11:35:57;12.40;;;8.60;;
67751;SDS011;54551;51.068;5.826;2023-04-07T11:38:27;12.87;;;8.40;;
67751;SDS011;54551;51.068;5.826;2023-04-07T11:41:08;11.90;;;9.43;;
67751;SDS011;54551;51.068;5.826;2023-04-07T11:43:40;10.67;;;9.07;;
67751;SDS011;54551;51.068;5.826;2023-04-07T11:46:10;9.47;;;8.47;;
67751;SDS011;54551;51.068;5.826;2023-04-07T11:48:38;7.97;;;7.20;;
67751;SDS011;54551;51.068;5.826;2023-04-07T11:51:06;9.97;;;7.60;;
67751;SDS011;54551;51.068;5.826;2023-04-07T11:53:43;11.87;;;6.60;;
67751;SDS011;54551;51.068;5.826;2023-04-07T11:56:12;9.60;;;6.23;;
67751;SDS011;54551;51.068;5.826;2023-04-07T11:58:47;10.83;;;6.17;;
67751;SDS011;54551;51.068;5.826;2023-04-07T12:01:14;6.83;;;5.83;;
67751;SDS011;54551;51.068;5.826;2023-04-07T12:04:00;9.97;;;6.47;;
67751;SDS011;54551;51.068;5.826;2023-04-07T12:09:03;8.13;;;6.60;;
67751;SDS011;54551;51.068;5.826;2023-04-07T12:11:30;7.27;;;5.83;;
67751;SDS011;54551;51.068;5.826;2023-04-07T12:13:57;8.17;;;6.57;;
67751;SDS011;54551;51.068;5.826;2023-04-07T12:16:23;8.43;;;6.20;;
67751;SDS011;54551;51.068;5.826;2023-04-07T12:18:50;7.23;;;6.53;;
67751;SDS011;54551;51.068;5.826;2023-04-07T12:21:17;6.47;;;5.83;;
67751;SDS011;54551;51.068;5.826;2023-04-07T12:23:43;9.43;;;6.20;;
67751;SDS011;54551;51.068;5.826;2023-04-07T12:26:10;11.50;;;6.13;;
67751;SDS011;54551;51.068;5.826;2023-04-07T12:28:36;7.33;;;5.77;;
67751;SDS011;54551;51.068;5.826;2023-04-07T12:31:03;8.07;;;5.60;;
67751;SDS011;54551;51.068;5.826;2023-04-07T12:33:29;6.87;;;6.07;;
67751;SDS011;54551;51.068;5.826;2023-04-07T12:35:56;7.27;;;5.50;;
67751;SDS011;54551;51.068;5.826;2023-04-07T12:38:22;8.07;;;5.87;;
67751;SDS011;54551;51.068;5.826;2023-04-07T12:40:49;12.43;;;8.90;;
67751;SDS011;54551;51.068;5.826;2023-04-07T12:43:15;28.03;;;17.47;;
67751;SDS011;54551;51.068;5.826;2023-04-07T12:45:41;21.77;;;13.43;;
67751;SDS011;54551;51.068;5.826;2023-04-07T12:48:07;9.00;;;6.47;;
67751;SDS011;54551;51.068;5.826;2023-04-07T12:50:34;21.13;;;13.10;;
67751;SDS011;54551;51.068;5.826;2023-04-07T12:53:01;21.37;;;12.00;;
67751;SDS011;54551;51.068;5.826;2023-04-07T12:55:30;13.57;;;8.10;;
67751;SDS011;54551;51.068;5.826;2023-04-07T12:57:58;16.97;;;9.20;;
67751;SDS011;54551;51.068;5.826;2023-04-07T13:00:25;38.33;;;14.93;;
67751;SDS011;54551;51.068;5.826;2023-04-07T13:02:50;18.17;;;8.53;;
67751;SDS011;54551;51.068;5.826;2023-04-07T13:05:17;19.33;;;9.00;;
67751;SDS011;54551;51.068;5.826;2023-04-07T13:07:43;8.73;;;6.07;;
67751;SDS011;54551;51.068;5.826;2023-04-07T13:10:09;10.70;;;7.57;;
67751;SDS011;54551;51.068;5.826;2023-04-07T13:12:35;9.70;;;6.03;;
67751;SDS011;54551;51.068;5.826;2023-04-07T13:15:02;9.17;;;5.83;;
67751;SDS011;54551;51.068;5.826;2023-04-07T13:17:29;8.83;;;5.47;;
67751;SDS011;54551;51.068;5.826;2023-04-07T13:19:55;9.17;;;5.53;;
67751;SDS011;54551;51.068;5.826;2023-04-07T13:22:21;9.13;;;5.43;;
67751;SDS011;54551;51.068;5.826;2023-04-07T13:24:48;8.63;;;5.10;;
67751;SDS011;54551;51.068;5.826;2023-04-07T13:27:14;7.97;;;5.20;;
67751;SDS011;54551;51.068;5.826;2023-04-07T13:29:40;9.83;;;5.30;;
67751;SDS011;54551;51.068;5.826;2023-04-07T13:32:09;8.63;;;4.43;;
67751;SDS011;54551;51.068;5.826;2023-04-07T13:34:39;5.97;;;4.40;;
67751;SDS011;54551;51.068;5.826;2023-04-07T13:37:05;7.53;;;4.90;;
67751;SDS011;54551;51.068;5.826;2023-04-07T13:39:31;6.73;;;5.17;;
67751;SDS011;54551;51.068;5.826;2023-04-07T13:41:58;11.33;;;6.27;;
67751;SDS011;54551;51.068;5.826;2023-04-07T13:44:27;13.53;;;7.50;;
67751;SDS011;54551;51.068;5.826;2023-04-07T13:46:53;12.13;;;7.37;;
67751;SDS011;54551;51.068;5.826;2023-04-07T13:49:20;11.20;;;7.63;;
67751;SDS011;54551;51.068;5.826;2023-04-07T13:51:47;11.70;;;8.30;;
67751;SDS011;54551;51.068;5.826;2023-04-07T13:54:13;12.67;;;9.30;;
67751;SDS011;54551;51.068;5.826;2023-04-07T13:56:40;13.57;;;9.27;;
67751;SDS011;54551;51.068;5.826;2023-04-07T13:59:06;13.53;;;8.43;;
67751;SDS011;54551;51.068;5.826;2023-04-07T14:01:33;14.40;;;8.23;;
67751;SDS011;54551;51.068;5.826;2023-04-07T14:04:00;11.90;;;7.93;;
67751;SDS011;54551;51.068;5.826;2023-04-07T14:06:27;11.63;;;8.10;;
67751;SDS011;54551;51.068;5.826;2023-04-07T14:08:54;10.87;;;8.00;;
67751;SDS011;54551;51.068;5.826;2023-04-07T14:11:20;8.17;;;7.27;;
67751;SDS011;54551;51.068;5.826;2023-04-07T14:13:47;9.23;;;7.23;;
67751;SDS011;54551;51.068;5.826;2023-04-07T14:16:13;10.53;;;7.67;;
67751;SDS011;54551;51.068;5.826;2023-04-07T14:18:40;12.00;;;7.80;;
67751;SDS011;54551;51.068;5.826;2023-04-07T14:21:06;8.93;;;7.20;;
67751;SDS011;54551;51.068;5.826;2023-04-07T14:23:32;11.50;;;7.87;;
67751;SDS011;54551;51.068;5.826;2023-04-07T14:25:58;8.00;;;6.20;;
67751;SDS011;54551;51.068;5.826;2023-04-07T14:28:25;8.93;;;6.10;;
67751;SDS011;54551;51.068;5.826;2023-04-07T14:30:52;11.63;;;6.40;;
67751;SDS011;54551;51.068;5.826;2023-04-07T14:33:21;9.97;;;5.27;;
67751;SDS011;54551;51.068;5.826;2023-04-07T14:35:47;13.80;;;8.70;;
67751;SDS011;54551;51.068;5.826;2023-04-07T14:38:13;8.47;;;5.97;;
67751;SDS011;54551;51.068;5.826;2023-04-07T14:40:40;12.63;;;6.50;;
67751;SDS011;54551;51.068;5.826;2023-04-07T14:43:06;10.87;;;7.63;;
67751;SDS011;54551;51.068;5.826;2023-04-07T14:45:32;9.43;;;6.40;;
67751;SDS011;54551;51.068;5.826;2023-04-07T14:47:59;13.80;;;7.27;;
67751;SDS011;54551;51.068;5.826;2023-04-07T14:50:27;14.07;;;11.00;;
67751;SDS011;54551;51.068;5.826;2023-04-07T14:52:53;9.07;;;5.23;;